Saint Joseph, Iowa
Current Conditions -  °F | °C
As of 11:55 AM on Friday 24 Oct 2014 (Local Time) from KAXA Reporting Station
Overcast Overcast  
Wind Chill: 63°   Ceiling: 1600
Heat Index: 63°   Visibility: 7mi
Dew Point: 59°   Wind: 10mph
Humidity: 88%   Direction: 240°WSW
Pressure: 29.91"   Gusts: NA
Location:  42.8572°N, 94.2676°W
Report Text: KAXA 241655Z AUTO 24009KT 7SM OVC016 17/15 A2991 RMK AO2
Loading
Personal Weather Stations






























Interactive Weather Map
Tropical Storm Tracking
New forecast layout! Learn more

10-Day Weather Forecast

Advertisements
Track Severe Weather on mobile